Time;durP1;ratioP1;P1;durP2;ratioP2;P2;SDS_P1;SDS_P2;PMS_P1;PMS_P2;Temp;Humidity;BMP_temperature;BMP_pressure;BME280_temperature;BME280_humidity;BME280_pressure;Samples;Min_cycle;Max_cycle;Signal;HPM_P1;HPM_P2
2023/03/10 00:00:07;;;;;;;22.05;14.32;;;4.50;99.90;;;;;;5007517;28;20054;-60
2023/03/10 00:02:33;;;;;;;26.38;18.05;;;2.40;99.90;;;;;;4992448;28;20086;-60
2023/03/10 00:05:00;;;;;;;24.45;17.13;;;4.00;99.90;;;;;;4986925;28;20058;-60
2023/03/10 00:07:25;;;;;;;27.23;17.08;;;4.60;99.90;;;;;;4992361;28;20042;-60
2023/03/10 00:09:51;;;;;;;27.88;18.60;;;4.50;99.90;;;;;;4992480;28;20554;-60
2023/03/10 00:12:17;;;;;;;27.05;17.85;;;4.20;99.90;;;;;;4990368;28;20038;-60
2023/03/10 00:14:42;;;;;;;26.33;17.40;;;2.60;99.90;;;;;;4992075;28;20042;-60
2023/03/10 00:17:08;;;;;;;27.33;18.77;;;4.00;99.90;;;;;;4992240;28;20049;-60
2023/03/10 00:19:33;;;;;;;29.38;18.60;;;3.00;99.90;;;;;;4990452;28;20145;-60
2023/03/10 00:22:01;;;;;;;29.02;19.70;;;4.60;99.90;;;;;;4990104;28;20035;-60
2023/03/10 00:24:26;;;;;;;27.63;18.90;;;4.30;99.90;;;;;;4992146;28;20100;-60
2023/03/10 00:26:52;;;;;;;28.15;19.15;;;4.60;99.90;;;;;;4992230;28;20499;-60
2023/03/10 00:29:17;;;;;;;29.35;19.98;;;3.60;99.90;;;;;;4989682;28;20042;-60
2023/03/10 00:31:43;;;;;;;28.48;19.27;;;3.80;99.90;;;;;;4991600;28;20038;-60
2023/03/10 00:34:10;;;;;;;27.20;18.55;;;4.20;99.90;;;;;;4990698;28;20053;-60
2023/03/10 00:36:36;;;;;;;26.75;17.92;;;4.60;99.90;;;;;;4991903;28;20049;-60
2023/03/10 00:39:04;;;;;;;27.02;17.85;;;4.60;99.90;;;;;;4991791;28;20050;-61
2023/03/10 00:41:40;;;;;;;25.60;18.02;;;2.80;99.90;;;;;;4992073;28;20073;-60
2023/03/10 00:44:08;;;;;;;25.60;18.20;;;4.30;99.90;;;;;;4989346;28;20057;-60
2023/03/10 00:46:37;;;;;;;25.10;17.45;;;2.60;99.90;;;;;;4991121;28;20528;-60
2023/03/10 00:49:06;;;;;;;26.80;18.02;;;4.40;99.90;;;;;;4989821;28;20042;-60
2023/03/10 00:51:33;;;;;;;25.20;17.30;;;3.80;99.90;;;;;;4991513;28;20050;-60
2023/03/10 00:54:02;;;;;;;24.92;16.88;;;3.40;99.90;;;;;;4995132;28;20392;-60
2023/03/10 00:56:28;;;;;;;23.75;15.48;;;4.50;99.90;;;;;;4990614;28;20120;-60
2023/03/10 00:58:57;;;;;;;22.73;14.82;;;4.40;99.90;;;;;;4990329;28;20049;-60
2023/03/10 01:01:29;;;;;;;27.50;17.30;;;4.50;99.90;;;;;;4991566;28;20105;-60
2023/03/10 01:03:56;;;;;;;25.88;18.20;;;4.60;99.90;;;;;;4989260;28;20042;-60
2023/03/10 01:06:23;;;;;;;26.25;18.10;;;4.70;99.90;;;;;;4991614;28;20043;-61
2023/03/10 01:08:49;;;;;;;26.85;17.83;;;2.60;99.90;;;;;;4989978;28;20034;-60
2023/03/10 01:11:21;;;;;;;27.52;18.55;;;2.60;99.90;;;;;;4990261;28;20046;-60
2023/03/10 01:13:47;;;;;;;27.15;19.77;;;3.50;99.90;;;;;;4990771;28;20105;-60
2023/03/10 01:16:13;;;;;;;29.92;20.27;;;2.50;99.90;;;;;;4990312;28;20574;-60
2023/03/10 01:18:39;;;;;;;29.52;20.13;;;2.50;99.90;;;;;;4993222;28;20042;-60
2023/03/10 01:21:05;;;;;;;34.88;23.70;;;4.60;99.90;;;;;;4991442;28;20044;-60
2023/03/10 01:23:32;;;;;;;32.70;22.35;;;5.70;99.90;;;;;;4989483;28;20042;-60
2023/03/10 01:25:57;;;;;;;34.90;25.05;;;3.30;99.90;;;;;;4990167;28;20047;-60
2023/03/10 01:28:23;;;;;;;38.53;26.50;;;4.70;99.90;;;;;;4991169;28;20109;-60
2023/03/10 01:30:49;;;;;;;39.45;26.65;;;3.20;99.90;;;;;;4991350;28;20442;-60
2023/03/10 01:33:16;;;;;;;41.55;28.08;;;4.70;99.90;;;;;;4989739;28;20121;-60
2023/03/10 01:35:43;;;;;;;36.85;25.02;;;2.60;99.90;;;;;;4991266;28;20034;-60
2023/03/10 01:38:08;;;;;;;43.03;28.13;;;3.70;90.10;;;;;;4991016;28;20038;-60
2023/03/10 01:40:35;;;;;;;44.47;28.45;;;3.20;88.90;;;;;;4989407;28;20133;-60
2023/03/10 01:43:19;;;;;;;42.83;27.52;;;3.70;91.10;;;;;;4990175;28;20072;-60
2023/03/10 01:45:44;;;;;;;37.10;24.95;;;4.40;95.00;;;;;;4988236;28;20052;-61
2023/03/10 01:48:15;;;;;;;35.75;24.67;;;3.80;96.10;;;;;;4990945;28;20113;-60
2023/03/10 01:50:43;;;;;;;28.52;21.02;;;4.60;99.90;;;;;;4987389;28;20042;-60
2023/03/10 01:53:09;;;;;;;29.42;20.52;;;2.60;99.90;;;;;;4990748;28;20049;-60
2023/03/10 01:55:38;;;;;;;28.08;19.77;;;3.80;99.90;;;;;;4994082;28;20034;-60
2023/03/10 01:58:06;;;;;;;27.38;20.20;;;4.40;99.90;;;;;;4991187;28;20134;-60
2023/03/10 02:00:31;;;;;;;27.60;17.65;;;2.60;96.70;;;;;;4994488;28;20046;-60
2023/03/10 02:03:08;;;;;;;25.30;18.42;;;2.80;92.30;;;;;;4994734;28;20096;-60
2023/03/10 02:05:37;;;;;;;24.42;17.35;;;2.70;90.30;;;;;;4992200;28;20058;-60
2023/03/10 02:08:05;;;;;;;23.00;17.17;;;4.40;75.80;;;;;;4993447;28;20078;-60
2023/03/10 02:10:31;;;;;;;21.92;16.27;;;2.70;58.60;;;;;;4996216;28;20429;-60
2023/03/10 02:12:57;;;;;;;19.95;15.20;;;4.70;42.00;;;;;;4998258;28;20045;-60
2023/03/10 02:15:23;;;;;;;20.40;15.55;;;2.60;26.10;;;;;;4993854;28;20034;-60
2023/03/10 02:17:50;;;;;;;21.58;15.65;;;4.70;9.80;;;;;;4991503;28;20043;-60
2023/03/10 02:20:24;;;;;;;20.27;14.45;;;3.70;1.00;;;;;;4993955;28;20042;-61
2023/03/10 02:22:50;;;;;;;23.08;16.33;;;2.90;1.00;;;;;;4993833;28;20053;-60
2023/03/10 02:25:27;;;;;;;23.52;16.85;;;4.50;1.00;;;;;;4974403;28;20039;-61
2023/03/10 02:27:54;;;;;;;22.23;16.98;;;2.80;1.00;;;;;;4989045;28;20132;-60
2023/03/10 02:30:25;;;;;;;26.13;17.73;;;4.10;1.00;;;;;;4992829;28;20432;-60
2023/03/10 02:32:55;;;;;;;26.00;19.25;;;4.60;1.00;;;;;;4990076;28;20073;-61
2023/03/10 02:35:21;;;;;;;25.95;18.58;;;4.80;1.00;;;;;;4991398;28;20035;-61
2023/03/10 02:37:49;;;;;;;24.55;18.33;;;4.80;1.00;;;;;;4990820;28;20038;-60
2023/03/10 02:40:46;;;;;;;24.95;18.08;;;2.60;99.90;;;;;;4991470;28;20161;-60
2023/03/10 02:43:20;;;;;;;22.10;16.40;;;4.40;99.90;;;;;;4989292;28;20034;-60
2023/03/10 02:45:47;;;;;;;23.50;16.80;;;4.60;99.90;;;;;;4993802;28;20453;-60
2023/03/10 02:48:21;;;;;;;23.38;17.15;;;2.90;99.90;;;;;;4993653;28;20089;-60
2023/03/10 02:50:47;;;;;;;22.88;16.80;;;4.40;99.90;;;;;;4991359;28;20041;-60
2023/03/10 02:53:17;;;;;;;21.63;16.33;;;4.20;99.90;;;;;;4992949;28;20049;-60
2023/03/10 02:55:43;;;;;;;29.35;19.63;;;3.50;99.90;;;;;;4991944;28;20126;-61
2023/03/10 02:58:09;;;;;;;23.67;17.25;;;4.20;76.50;;;;;;4994143;28;20142;-60
2023/03/10 03:00:39;;;;;;;25.60;18.60;;;4.00;1.00;;;;;;4993735;28;20142;-60
2023/03/10 03:03:06;;;;;;;25.05;17.73;;;4.70;1.00;;;;;;4990795;28;20035;-60
2023/03/10 03:05:32;;;;;;;24.95;18.13;;;4.70;1.00;;;;;;4993325;28;20081;-60
2023/03/10 03:07:58;;;;;;;28.45;18.27;;;3.80;99.90;;;;;;4992812;28;20035;-60
2023/03/10 03:10:23;;;;;;;22.65;17.02;;;2.90;99.90;;;;;;4993650;28;20294;-60
2023/03/10 03:12:50;;;;;;;24.42;17.75;;;4.70;99.90;;;;;;4989905;28;20503;-60
2023/03/10 03:15:16;;;;;;;21.83;16.48;;;4.40;99.90;;;;;;4976035;28;20520;-60
2023/03/10 03:17:42;;;;;;;23.33;17.70;;;3.20;18.00;;;;;;4992207;28;20104;-60
2023/03/10 03:20:13;;;;;;;24.98;17.15;;;4.40;1.00;;;;;;4993001;28;20512;-60
2023/03/10 03:22:43;;;;;;;23.25;17.20;;;2.80;1.00;;;;;;4992539;28;20043;-60
2023/03/10 03:25:11;;;;;;;20.38;14.88;;;4.40;1.00;;;;;;4993243;28;20045;-60
2023/03/10 03:27:37;;;;;;;26.88;17.98;;;2.60;1.00;;;;;;4992044;28;20113;-60
2023/03/10 03:30:09;;;;;;;23.45;16.33;;;4.70;1.00;;;;;;4974724;28;20038;-60
2023/03/10 03:32:35;;;;;;;25.75;19.13;;;4.20;99.90;;;;;;4992476;28;20046;-60
2023/03/10 03:35:03;;;;;;;24.35;17.73;;;4.70;99.90;;;;;;4992993;28;20049;-60
2023/03/10 03:37:29;;;;;;;26.17;18.83;;;4.50;99.90;;;;;;4991829;28;20496;-60
2023/03/10 03:39:54;;;;;;;26.73;19.20;;;2.70;99.90;;;;;;5011257;28;20048;-60
2023/03/10 03:42:20;;;;;;;27.10;20.02;;;2.90;1.00;;;;;;4994704;28;20087;-60
2023/03/10 03:44:47;;;;;;;27.30;19.83;;;2.90;1.00;;;;;;4990481;28;20046;-60
2023/03/10 03:47:12;;;;;;;26.73;19.55;;;2.60;1.00;;;;;;4992654;28;20042;-60
2023/03/10 03:49:38;;;;;;;27.27;19.42;;;4.70;1.00;;;;;;4992297;28;20038;-59
2023/03/10 03:52:05;;;;;;;30.30;21.30;;;4.70;7.70;;;;;;4992667;28;20034;-60
2023/03/10 03:54:31;;;;;;;30.58;21.35;;;4.70;66.00;;;;;;4990628;28;20117;-60
2023/03/10 03:56:56;;;;;;;30.15;20.15;;;4.50;99.90;;;;;;4992523;28;20126;-60
2023/03/10 03:59:22;;;;;;;31.05;21.70;;;3.60;99.90;;;;;;4992783;28;20054;-59
2023/03/10 04:01:47;;;;;;;28.45;21.05;;;4.60;99.90;;;;;;4992631;28;20038;-60
2023/03/10 04:04:13;;;;;;;31.20;21.60;;;2.30;99.90;;;;;;4991564;28;20050;-60
2023/03/10 04:06:39;;;;;;;31.13;20.92;;;4.20;99.90;;;;;;4991073;28;20082;-60
2023/03/10 04:09:05;;;;;;;34.30;23.17;;;2.30;99.90;;;;;;4992030;28;20125;-60
2023/03/10 04:11:31;;;;;;;30.45;21.85;;;2.20;1.00;;;;;;4989747;28;20034;-60
2023/03/10 04:13:56;;;;;;;33.42;21.75;;;2.80;1.00;;;;;;4990563;28;20049;-60
2023/03/10 04:16:22;;;;;;;33.95;22.45;;;4.10;12.70;;;;;;4992427;28;20480;-60
2023/03/10 04:18:48;;;;;;;33.05;21.30;;;2.10;99.90;;;;;;4991821;28;20046;-60
2023/03/10 04:21:13;;;;;;;35.83;24.02;;;3.70;99.90;;;;;;4992167;28;20058;-60
2023/03/10 04:23:41;;;;;;;32.92;22.33;;;2.10;99.90;;;;;;4990628;28;20043;-60
2023/03/10 04:26:08;;;;;;;31.48;22.25;;;4.50;1.00;;;;;;4989888;28;20553;-59
2023/03/10 04:28:34;;;;;;;35.13;21.73;;;3.70;1.00;;;;;;4991446;28;20074;-60
2023/03/10 04:30:59;;;;;;;30.50;20.65;;;4.50;10.20;;;;;;4992155;28;20070;-60
2023/03/10 04:33:25;;;;;;;36.20;23.73;;;3.70;76.10;;;;;;4992153;28;20045;-60
2023/03/10 04:35:52;;;;;;;35.83;23.77;;;2.40;99.90;;;;;;4983517;28;20766;-60
2023/03/10 04:38:18;;;;;;;36.20;23.73;;;3.50;99.90;;;;;;4992025;28;20066;-60
2023/03/10 04:40:44;;;;;;;36.80;23.85;;;2.30;99.90;;;;;;4991109;28;20042;-60
2023/03/10 04:43:09;;;;;;;32.38;21.55;;;4.40;99.90;;;;;;4999694;28;20142;-60
2023/03/10 04:45:35;;;;;;;35.17;22.35;;;3.40;99.90;;;;;;4991898;28;20038;-60
2023/03/10 04:48:01;;;;;;;33.38;22.63;;;2.90;99.90;;;;;;4991579;28;20051;-60
2023/03/10 04:50:26;;;;;;;39.17;23.33;;;1.80;99.90;;;;;;4991727;28;20085;-60
2023/03/10 04:52:52;;;;;;;38.58;24.83;;;4.40;99.90;;;;;;4991114;28;20395;-60
2023/03/10 04:55:18;;;;;;;37.28;24.48;;;4.40;99.90;;;;;;4989783;28;20073;-60
2023/03/10 04:57:43;;;;;;;31.42;21.35;;;4.60;99.90;;;;;;4991547;28;20042;-60
2023/03/10 05:00:11;;;;;;;32.90;22.13;;;3.70;99.90;;;;;;4991742;28;20043;-60
2023/03/10 05:02:37;;;;;;;36.08;23.58;;;2.20;99.90;;;;;;4991409;28;20034;-61
2023/03/10 05:05:04;;;;;;;36.92;22.65;;;1.80;99.90;;;;;;4990724;28;20101;-60
2023/03/10 05:07:31;;;;;;;34.25;21.98;;;4.40;99.90;;;;;;4991306;28;20503;-60
2023/03/10 05:09:57;;;;;;;37.47;23.15;;;3.60;99.90;;;;;;4990915;28;20124;-60
2023/03/10 05:12:22;;;;;;;31.40;21.17;;;2.20;99.90;;;;;;4989729;28;20042;-61
2023/03/10 05:14:48;;;;;;;32.08;20.60;;;1.80;99.90;;;;;;4990079;28;20038;-60
2023/03/10 05:17:14;;;;;;;35.15;21.73;;;1.80;99.90;;;;;;4991416;28;20046;-61
2023/03/10 05:19:40;;;;;;;38.20;23.85;;;1.80;99.90;;;;;;4991231;28;20128;-61
2023/03/10 05:22:06;;;;;;;41.00;24.90;;;2.40;99.90;;;;;;4990012;28;20046;-61
2023/03/10 05:24:32;;;;;;;42.90;25.50;;;3.50;99.90;;;;;;4990397;28;20093;-61
2023/03/10 05:27:01;;;;;;;42.13;25.40;;;4.60;99.90;;;;;;4991142;28;20046;-61
2023/03/10 05:29:27;;;;;;;46.08;27.77;;;4.10;99.90;;;;;;4986095;28;20041;-61
2023/03/10 05:31:52;;;;;;;52.95;28.42;;;1.70;99.90;;;;;;4993562;28;20117;-61
2023/03/10 05:34:18;;;;;;;54.17;29.08;;;4.60;99.90;;;;;;4994481;28;20558;-61
2023/03/10 05:36:43;;;;;;;59.60;32.13;;;4.60;99.90;;;;;;4986828;28;20503;-61
2023/03/10 05:39:10;;;;;;;54.72;30.27;;;3.70;99.90;;;;;;4990752;28;20161;-61
2023/03/10 05:41:36;;;;;;;57.67;29.40;;;3.80;99.90;;;;;;4994983;28;20060;-61
2023/03/10 05:44:02;;;;;;;58.03;30.45;;;2.10;99.90;;;;;;5001697;28;20107;-61
2023/03/10 05:46:28;;;;;;;55.30;30.30;;;4.50;99.90;;;;;;4994989;28;20642;-61
2023/03/10 05:48:54;;;;;;;62.97;32.78;;;4.40;99.90;;;;;;4993457;28;20046;-62
2023/03/10 05:51:20;;;;;;;56.42;29.58;;;4.50;99.90;;;;;;4993556;28;20049;-61
2023/03/10 05:53:46;;;;;;;61.85;31.60;;;1.30;99.90;;;;;;4994385;28;20042;-62
2023/03/10 05:56:14;;;;;;;57.55;28.90;;;1.80;99.90;;;;;;4994793;28;20119;-62
2023/03/10 05:58:40;;;;;;;63.80;29.77;;;1.80;99.90;;;;;;4994562;28;20079;-61
2023/03/10 06:01:06;;;;;;;55.28;28.08;;;1.50;99.90;;;;;;4992048;28;20066;-62
2023/03/10 06:03:32;;;;;;;71.28;32.03;;;1.10;99.90;;;;;;4993644;28;20042;-62
2023/03/10 06:05:58;;;;;;;65.00;31.10;;;4.40;99.90;;;;;;4994522;28;20050;-62
2023/03/10 06:08:26;;;;;;;59.92;28.10;;;4.10;99.90;;;;;;4994344;28;20575;-61
2023/03/10 06:10:52;;;;;;;62.25;29.73;;;2.90;99.90;;;;;;4976526;28;20035;-62
2023/03/10 06:13:18;;;;;;;66.88;31.08;;;2.00;99.90;;;;;;4993267;28;20100;-62
2023/03/10 06:15:57;;;;;;;61.03;25.60;;;3.40;99.90;;;;;;4995335;28;20060;-62
2023/03/10 06:18:23;;;;;;;61.25;27.17;;;3.70;99.90;;;;;;4992989;28;20495;-62
2023/03/10 06:20:51;;;;;;;55.83;25.20;;;3.20;99.90;;;;;;4991580;28;20092;-63
2023/03/10 06:23:16;;;;;;;54.67;23.88;;;2.90;99.90;;;;;;4994432;28;20081;-62
2023/03/10 06:25:42;;;;;;;64.65;27.85;;;4.00;99.90;;;;;;4992396;28;20061;-62
2023/03/10 06:28:09;;;;;;;52.92;24.17;;;4.30;99.90;;;;;;4992344;28;20128;-63
2023/03/10 06:30:35;;;;;;;71.63;26.63;;;3.60;99.90;;;;;;4994048;28;20034;-63
2023/03/10 06:33:01;;;;;;;64.20;24.15;;;4.30;99.90;;;;;;4991219;28;20096;-63
2023/03/10 06:35:27;;;;;;;54.40;22.15;;;1.00;99.90;;;;;;4990767;28;20113;-63
2023/03/10 06:37:52;;;;;;;51.30;24.20;;;4.00;99.90;;;;;;4990525;28;20035;-63
2023/03/10 06:40:21;;;;;;;65.03;24.45;;;1.30;99.90;;;;;;4990809;28;20034;-63
2023/03/10 06:42:47;;;;;;;72.82;24.98;;;2.90;99.90;;;;;;4992644;28;20046;-64
2023/03/10 06:45:14;;;;;;;54.03;23.73;;;2.60;99.90;;;;;;4999349;28;20042;-64
2023/03/10 06:47:40;;;;;;;69.13;27.48;;;0.80;99.90;;;;;;5013644;28;20046;-64
2023/03/10 06:50:06;;;;;;;58.53;24.65;;;4.20;99.90;;;;;;4991956;28;20075;-64
2023/03/10 06:52:35;;;;;;;68.30;27.38;;;3.30;99.90;;;;;;4989673;28;20042;-64
2023/03/10 06:55:01;;;;;;;65.13;26.85;;;4.20;99.90;;;;;;4991746;28;20054;-64
2023/03/10 06:57:27;;;;;;;61.70;25.25;;;0.80;99.90;;;;;;4993271;28;20053;-64
2023/03/10 06:59:54;;;;;;;54.03;23.15;;;4.20;99.90;;;;;;4991988;28;20104;-64
2023/03/10 07:02:19;;;;;;;64.82;26.73;;;1.00;99.90;;;;;;4992109;28;20189;-64
2023/03/10 07:04:46;;;;;;;72.20;27.65;;;1.40;99.90;;;;;;4988855;28;20145;-64
2023/03/10 07:07:12;;;;;;;59.25;24.90;;;0.80;99.90;;;;;;4988626;28;20042;-64
2023/03/10 07:09:38;;;;;;;56.88;24.67;;;4.20;99.90;;;;;;4993822;28;20042;-65
2023/03/10 07:12:04;;;;;;;58.92;24.65;;;1.70;99.90;;;;;;4990149;28;20545;-65
2023/03/10 07:14:30;;;;;;;59.17;26.10;;;4.30;99.90;;;;;;4991498;28;20132;-64
2023/03/10 07:16:56;;;;;;;54.05;22.88;;;1.10;99.90;;;;;;4990798;28;20042;-64
2023/03/10 07:19:22;;;;;;;60.47;28.35;;;3.90;99.90;;;;;;4991961;28;20093;-65
2023/03/10 07:21:47;;;;;;;59.50;27.23;;;4.00;99.90;;;;;;5007799;28;20128;-65
2023/03/10 07:24:13;;;;;;;55.03;25.98;;;2.30;99.90;;;;;;4991918;28;20030;-64
2023/03/10 07:26:39;;;;;;;47.28;22.33;;;0.90;99.90;;;;;;4999538;28;20041;-64
2023/03/10 07:29:04;;;;;;;47.95;23.42;;;0.90;99.90;;;;;;4990512;28;20050;-64
2023/03/10 07:31:31;;;;;;;51.20;24.65;;;1.10;99.90;;;;;;4990475;28;20519;-64
2023/03/10 07:33:57;;;;;;;46.22;21.95;;;4.00;99.90;;;;;;4987164;28;20046;-64
2023/03/10 07:36:22;;;;;;;51.90;24.08;;;0.90;99.90;;;;;;5005088;28;20046;-64
2023/03/10 07:38:48;;;;;;;48.97;23.75;;;4.30;99.90;;;;;;4982124;28;20057;-64
2023/03/10 07:41:17;;;;;;;49.70;22.30;;;3.30;99.90;;;;;;4976653;28;20034;-65
2023/03/10 07:43:43;;;;;;;42.97;22.33;;;1.20;99.90;;;;;;4991741;28;20081;-65
2023/03/10 07:46:11;;;;;;;45.75;21.95;;;2.80;99.90;;;;;;4992218;28;20047;-65
2023/03/10 07:48:37;;;;;;;41.03;21.13;;;1.00;99.90;;;;;;5007122;28;20053;-64
2023/03/10 07:51:02;;;;;;;40.25;20.80;;;1.80;99.90;;;;;;4990648;28;20042;-65
2023/03/10 07:53:29;;;;;;;35.17;18.65;;;1.70;99.90;;;;;;4986390;28;20073;-65
2023/03/10 07:55:55;;;;;;;41.72;21.55;;;1.80;99.90;;;;;;4991481;28;20515;-66
2023/03/10 07:58:21;;;;;;;42.15;19.17;;;4.20;99.90;;;;;;4989342;28;20133;-65
2023/03/10 08:00:56;;;;;;;35.20;18.63;;;2.60;99.90;;;;;;4987491;28;20042;-65
2023/03/10 08:03:24;;;;;;;38.65;18.95;;;1.40;99.90;;;;;;4990090;28;20049;-64
2023/03/10 08:05:49;;;;;;;32.95;18.20;;;4.30;99.90;;;;;;4991000;28;20062;-65
2023/03/10 08:08:15;;;;;;;36.15;18.73;;;4.10;99.90;;;;;;4981700;28;20172;-64
2023/03/10 08:10:41;;;;;;;44.28;20.25;;;1.00;99.90;;;;;;4983912;28;20081;-65
2023/03/10 08:13:07;;;;;;;34.88;18.15;;;1.10;99.90;;;;;;4987755;28;20498;-65
2023/03/10 08:15:32;;;;;;;41.30;20.17;;;1.50;99.90;;;;;;4985665;28;20420;-64
2023/03/10 08:17:58;;;;;;;35.53;18.75;;;1.20;99.90;;;;;;4991733;28;20053;-64
2023/03/10 08:20:24;;;;;;;44.60;19.98;;;1.10;99.90;;;;;;4984955;28;20041;-64
2023/03/10 08:22:52;;;;;;;43.67;19.90;;;4.40;99.90;;;;;;4986370;28;20046;-64
2023/03/10 08:25:17;;;;;;;45.22;21.83;;;4.00;99.90;;;;;;4990789;28;20042;-64
2023/03/10 08:27:43;;;;;;;44.88;22.27;;;1.00;99.90;;;;;;4989351;28;20120;-64
2023/03/10 08:30:09;;;;;;;52.05;23.17;;;2.60;99.90;;;;;;4990451;28;20042;-64
2023/03/10 08:32:35;;;;;;;56.58;25.23;;;4.30;99.90;;;;;;4990924;28;20045;-64
2023/03/10 08:35:03;;;;;;;51.15;27.05;;;1.10;99.90;;;;;;5002550;28;20034;-64
2023/03/10 08:37:29;;;;;;;65.60;29.25;;;2.70;99.90;;;;;;4987717;28;20251;-64
2023/03/10 08:39:56;;;;;;;53.20;27.20;;;4.50;99.90;;;;;;4991420;28;20050;-64
2023/03/10 08:42:21;;;;;;;42.45;23.40;;;1.10;99.90;;;;;;4990791;28;20488;-64
2023/03/10 08:44:47;;;;;;;49.88;26.60;;;4.30;99.90;;;;;;4990016;28;20042;-64
2023/03/10 08:47:13;;;;;;;52.22;26.90;;;1.90;99.90;;;;;;4988039;28;20123;-64
2023/03/10 08:49:39;;;;;;;52.33;26.45;;;4.60;99.90;;;;;;4983098;28;20042;-63
2023/03/10 08:52:06;;;;;;;45.15;22.75;;;1.90;99.90;;;;;;4988010;28;20085;-64
2023/03/10 08:54:32;;;;;;;47.65;26.27;;;3.20;99.90;;;;;;4991177;28;20042;-64
2023/03/10 08:56:58;;;;;;;43.83;23.63;;;1.20;99.90;;;;;;4998910;28;20053;-64
2023/03/10 08:59:24;;;;;;;54.88;27.17;;;4.20;99.90;;;;;;4986913;28;20030;-64
2023/03/10 09:01:49;;;;;;;54.28;28.15;;;1.60;99.90;;;;;;4986050;28;20141;-63
2023/03/10 09:04:15;;;;;;;49.85;26.13;;;4.50;99.90;;;;;;4987546;28;20100;-63
2023/03/10 09:06:41;;;;;;;56.70;28.80;;;2.10;99.90;;;;;;4985012;28;20508;-64
2023/03/10 09:09:08;;;;;;;61.88;28.98;;;1.10;99.90;;;;;;4988110;28;20038;-63
2023/03/10 09:11:36;;;;;;;69.60;33.15;;;1.40;99.90;;;;;;4987335;28;20042;-64
2023/03/10 09:14:02;;;;;;;68.97;33.75;;;3.80;99.90;;;;;;4987461;28;20121;-63
2023/03/10 09:16:29;;;;;;;69.20;32.25;;;1.90;99.90;;;;;;4990079;28;20149;-64
2023/03/10 09:18:56;;;;;;;57.78;30.17;;;4.00;99.90;;;;;;4988723;28;20038;-65
2023/03/10 09:21:21;;;;;;;58.80;29.60;;;1.10;99.90;;;;;;4985567;28;20128;-64
2023/03/10 09:23:49;;;;;;;62.60;31.95;;;4.70;99.90;;;;;;4987654;28;20081;-64
2023/03/10 09:26:15;;;;;;;61.58;32.65;;;4.40;99.90;;;;;;4985785;28;20133;-63
2023/03/10 09:28:41;;;;;;;57.60;32.15;;;1.80;99.90;;;;;;4991055;28;20129;-63
2023/03/10 09:31:08;;;;;;;60.03;29.85;;;4.50;99.90;;;;;;4990880;28;20039;-64
2023/03/10 09:33:34;;;;;;;59.55;28.40;;;1.70;99.90;;;;;;4988803;28;20112;-64
2023/03/10 09:36:02;;;;;;;54.65;30.63;;;4.30;99.90;;;;;;4988032;28;20078;-63
2023/03/10 09:38:28;;;;;;;51.53;28.83;;;1.20;99.90;;;;;;4993915;28;20041;-64
2023/03/10 09:41:03;;;;;;;61.63;32.47;;;3.00;99.90;;;;;;4990145;28;20056;-63
2023/03/10 09:43:37;;;;;;;61.97;31.85;;;1.20;99.90;;;;;;4993932;28;20377;-63
2023/03/10 09:46:21;;;;;;;54.95;29.42;;;4.80;99.90;;;;;;4976132;28;20614;-63
2023/03/10 09:49:08;;;;;;;48.63;26.40;;;1.60;99.90;;;;;;5004269;28;20035;-63
2023/03/10 09:51:36;;;;;;;48.17;25.55;;;4.60;99.90;;;;;;4989370;28;20074;-63
2023/03/10 09:54:25;;;;;;;44.58;23.33;;;4.80;99.90;;;;;;4991293;28;20427;-63
2023/03/10 09:56:51;;;;;;;40.70;22.48;;;1.30;99.90;;;;;;4989286;28;20100;-63
2023/03/10 09:59:26;;;;;;;42.42;23.13;;;3.10;99.90;;;;;;4991086;28;20038;-63
2023/03/10 10:01:52;;;;;;;44.72;23.60;;;4.80;99.90;;;;;;4988216;28;20101;-63
2023/03/10 10:04:24;;;;;;;38.88;22.27;;;4.20;99.90;;;;;;4987132;28;20093;-63
2023/03/10 10:06:50;;;;;;;46.13;23.20;;;4.90;99.90;;;;;;4988334;28;20064;-63
2023/03/10 10:09:41;;;;;;;41.05;23.65;;;3.60;99.90;;;;;;4987523;28;20552;-63
2023/03/10 10:12:15;;;;;;;39.25;22.70;;;4.90;99.90;;;;;;4987444;28;20081;-63
2023/03/10 10:14:42;;;;;;;49.30;26.13;;;1.30;99.90;;;;;;4980834;28;20035;-63
2023/03/10 10:17:20;;;;;;;50.63;26.35;;;4.70;99.90;;;;;;5007712;28;20419;-63
2023/03/10 10:19:48;;;;;;;47.10;25.00;;;5.00;99.90;;;;;;4989507;28;20038;-63
2023/03/10 10:22:19;;;;;;;47.35;23.52;;;5.10;99.90;;;;;;4990970;28;20045;-63
2023/03/10 10:25:17;;;;;;;36.00;21.48;;;5.00;99.90;;;;;;4993347;28;20053;-62
2023/03/10 10:27:44;;;;;;;41.10;21.20;;;4.90;99.90;;;;;;4968816;28;20054;-63
2023/03/10 10:30:38;;;;;;;41.25;20.63;;;1.90;99.90;;;;;;4994235;28;20061;-63
2023/03/10 10:33:09;;;;;;;38.50;19.25;;;2.10;99.90;;;;;;4981343;28;20105;-62
2023/03/10 10:35:55;;;;;;;35.83;16.85;;;1.40;99.90;;;;;;4984771;28;20452;-63
2023/03/10 10:38:27;;;;;;;29.15;16.80;;;5.20;99.90;;;;;;4990341;28;20497;-62
2023/03/10 10:41:05;;;;;;;27.95;14.52;;;1.90;99.90;;;;;;4994258;28;20053;-62
2023/03/10 10:43:39;;;;;;;35.45;17.23;;;1.90;99.90;;;;;;5010108;28;20053;-62
2023/03/10 10:46:07;;;;;;;24.20;13.07;;;3.60;99.90;;;;;;4994681;28;20046;-62
2023/03/10 10:48:45;;;;;;;32.42;16.13;;;5.20;99.90;;;;;;4989788;28;20046;-63
2023/03/10 10:51:28;;;;;;;31.35;15.18;;;1.80;99.90;;;;;;4992162;28;20030;-63
2023/03/10 10:53:59;;;;;;;29.55;14.80;;;5.20;99.90;;;;;;4990114;28;20048;-63
2023/03/10 10:56:27;;;;;;;25.58;13.55;;;4.70;99.90;;;;;;4988615;28;20050;-63
2023/03/10 10:59:18;;;;;;;24.65;13.05;;;2.30;99.90;;;;;;4990975;28;20138;-63
2023/03/10 11:01:51;;;;;;;23.27;12.70;;;1.90;99.90;;;;;;4992326;28;20388;-63
2023/03/10 11:04:18;;;;;;;25.73;13.98;;;1.60;99.90;;;;;;4987283;28;20325;-63
2023/03/10 11:06:44;;;;;;;32.85;15.20;;;2.70;99.90;;;;;;5006102;28;20050;-62
2023/03/10 11:09:35;;;;;;;27.05;13.57;;;5.40;99.90;;;;;;4990506;28;20034;-62
2023/03/10 11:12:25;;;;;;;30.70;15.40;;;1.80;99.90;;;;;;4989247;28;20116;-63
2023/03/10 11:15:11;;;;;;;29.13;14.85;;;2.30;99.90;;;;;;4989606;28;20046;-63
2023/03/10 11:17:47;;;;;;;27.73;15.70;;;2.90;99.90;;;;;;4991640;28;20051;-61
2023/03/10 11:20:26;;;;;;;;;;;5.20;99.90;;;;;;4989699;28;20050;-62
2023/03/10 11:23:03;;;;;;;26.33;13.75;;;1.80;99.90;;;;;;4991318;28;19922;-62
2023/03/10 11:25:45;;;;;;;29.80;14.27;;;5.40;99.90;;;;;;4992464;28;20405;-63
2023/03/10 11:28:32;;;;;;;32.92;14.43;;;1.70;99.90;;;;;;4981347;28;20054;-62
2023/03/10 11:31:14;;;;;;;23.35;14.40;;;5.30;99.90;;;;;;4986971;28;20049;-63
2023/03/10 11:34:16;;;;;;;28.05;14.27;;;4.00;99.90;;;;;;4986938;28;20070;-63
2023/03/10 11:37:03;;;;;;;27.45;14.43;;;5.40;99.90;;;;;;4989971;28;20410;-62
2023/03/10 11:39:38;;;;;;;29.27;16.02;;;3.90;99.90;;;;;;4978252;28;20050;-62
2023/03/10 11:42:14;;;;;;;34.42;15.77;;;4.10;99.90;;;;;;4996101;28;20041;-65
2023/03/10 11:45:03;;;;;;;33.80;16.42;;;4.60;99.90;;;;;;4987761;28;20133;-65
2023/03/10 11:48:04;;;;;;;28.55;16.10;;;1.60;99.90;;;;;;4986150;28;20137;-61
2023/03/10 11:50:58;;;;;;;34.92;16.85;;;2.20;99.90;;;;;;4982555;28;20038;-64
2023/03/10 11:53:23;;;;;;;39.35;16.92;;;5.40;99.90;;;;;;4988006;28;20030;-63
2023/03/10 11:55:49;;;;;;;37.25;16.88;;;5.40;99.90;;;;;;4990304;28;20507;-62
2023/03/10 11:58:24;;;;;;;32.28;15.05;;;1.90;99.90;;;;;;4989252;28;20038;-61
2023/03/10 12:00:52;;;;;;;32.17;15.98;;;3.00;99.90;;;;;;4980778;28;20069;-62
2023/03/10 12:03:35;;;;;;;35.97;17.25;;;5.00;99.90;;;;;;4986058;28;20050;-62
2023/03/10 12:06:05;;;;;;;32.40;15.57;;;4.80;99.90;;;;;;4990772;28;20512;-61
2023/03/10 12:08:33;;;;;;;36.40;16.75;;;4.80;99.90;;;;;;4990342;28;20570;-62
2023/03/10 12:11:01;;;;;;;43.40;18.73;;;1.90;99.90;;;;;;4989619;28;20065;-61
2023/03/10 12:13:45;;;;;;;38.15;16.75;;;1.80;99.90;;;;;;4988407;28;20035;-61
2023/03/10 12:16:18;;;;;;;36.72;17.70;;;1.80;99.90;;;;;;4987432;28;20500;-62
2023/03/10 12:18:43;;;;;;;47.83;18.15;;;3.30;99.90;;;;;;4989972;28;20042;-61
2023/03/10 12:21:21;;;;;;;37.17;17.27;;;1.80;99.90;;;;;;4988866;28;20042;-61
2023/03/10 12:23:50;;;;;;;40.47;18.67;;;5.10;99.90;;;;;;4990973;28;20045;-61
2023/03/10 12:26:39;;;;;;;36.95;17.90;;;5.40;99.90;;;;;;4987008;28;20459;-61
2023/03/10 12:29:20;;;;;;;36.85;16.75;;;5.40;99.90;;;;;;4990815;28;20571;-61
2023/03/10 12:31:48;;;;;;;32.55;16.98;;;5.20;99.90;;;;;;4988051;28;20042;-63
2023/03/10 12:34:27;;;;;;;38.45;16.95;;;1.90;99.90;;;;;;4991701;28;20420;-62
2023/03/10 12:37:01;;;;;;;37.65;15.38;;;3.40;99.90;;;;;;4983230;28;20038;-62
2023/03/10 12:39:26;;;;;;;53.70;18.20;;;1.80;99.90;;;;;;4984346;28;20168;-64
2023/03/10 12:41:54;;;;;;;33.45;14.93;;;5.00;99.90;;;;;;5001850;28;20133;-62
2023/03/10 12:44:25;;;;;;;26.67;12.40;;;5.20;99.90;;;;;;4991317;28;21425;-62
2023/03/10 12:47:12;;;;;;;20.70;11.50;;;1.90;99.90;;;;;;5007650;28;20046;-62